Time;durP1;ratioP1;P1;durP2;ratioP2;P2;SDS_P1;SDS_P2;PMS_P1;PMS_P2;Temp;Humidity;BMP_temperature;BMP_pressure;BME280_temperature;BME280_humidity;BME280_pressure;Samples;Min_cycle;Max_cycle;Signal;HPM_P1;HPM_P2
2024/01/17 00:01:03;;;;;;;27.90;16.07;;;-0.10;99.90;;;;;;5044024;28;38530;-74
2024/01/17 00:03:29;;;;;;;29.07;16.13;;;-0.10;99.90;;;;;;5031201;28;38123;-74
2024/01/17 00:05:55;;;;;;;31.67;17.13;;;-0.20;99.90;;;;;;5026338;28;37598;-75
2024/01/17 00:08:22;;;;;;;30.00;17.13;;;-0.20;99.90;;;;;;5030914;28;38024;-78
2024/01/17 00:10:48;;;;;;;26.43;16.43;;;-0.20;99.90;;;;;;5028738;28;35964;-75
2024/01/17 00:13:14;;;;;;;31.57;17.00;;;-0.30;99.90;;;;;;5033768;28;38612;-74
2024/01/17 00:15:40;;;;;;;30.30;18.00;;;-0.30;99.90;;;;;;5029530;28;38216;-74
2024/01/17 00:18:06;;;;;;;29.93;16.70;;;-0.30;99.90;;;;;;5026563;28;36952;-75
2024/01/17 00:20:33;;;;;;;34.83;17.30;;;-0.30;99.90;;;;;;5027870;28;37853;-74
2024/01/17 00:22:59;;;;;;;29.60;17.13;;;-0.30;99.90;;;;;;5026945;28;37815;-74
2024/01/17 00:25:25;;;;;;;26.27;15.93;;;-0.30;99.90;;;;;;5023303;28;37293;-75
2024/01/17 00:27:51;;;;;;;30.90;16.90;;;-0.30;99.90;;;;;;5047803;28;39300;-75
2024/01/17 00:30:17;;;;;;;27.80;15.93;;;-0.30;99.90;;;;;;5031764;28;36863;-73
2024/01/17 00:32:44;;;;;;;34.77;17.20;;;-0.30;99.90;;;;;;5031478;28;37682;-73
2024/01/17 00:35:10;;;;;;;32.97;17.90;;;-0.30;99.90;;;;;;5044703;28;38826;-74
2024/01/17 00:37:36;;;;;;;25.30;16.27;;;-0.30;99.90;;;;;;5032221;28;37150;-74
2024/01/17 00:40:03;;;;;;;30.87;16.03;;;-0.30;99.90;;;;;;5034435;28;38286;-72
2024/01/17 00:42:29;;;;;;;25.93;16.70;;;-0.30;99.90;;;;;;5026849;28;39097;-74
2024/01/17 00:44:55;;;;;;;27.17;17.40;;;-0.40;99.90;;;;;;5029655;28;38807;-74
2024/01/17 00:47:21;;;;;;;26.40;16.10;;;-0.40;99.90;;;;;;5028528;28;36918;-75
2024/01/17 00:49:48;;;;;;;28.33;16.77;;;-0.40;99.90;;;;;;5033763;28;36333;-74
2024/01/17 00:52:14;;;;;;;30.67;16.90;;;-0.40;99.90;;;;;;5030804;28;37731;-75
2024/01/17 00:54:40;;;;;;;25.83;17.00;;;-0.40;99.90;;;;;;5052710;28;41601;-74
2024/01/17 00:57:06;;;;;;;29.20;17.67;;;-0.40;99.90;;;;;;5048041;28;38144;-74
2024/01/17 00:59:32;;;;;;;30.40;19.23;;;-0.40;99.90;;;;;;5032508;28;36256;-74
2024/01/17 01:01:58;;;;;;;30.20;17.97;;;-0.40;99.90;;;;;;5042428;28;38215;-74
2024/01/17 01:04:24;;;;;;;28.77;18.97;;;-0.40;99.90;;;;;;5050413;28;38767;-77
2024/01/17 01:06:50;;;;;;;32.17;18.87;;;-0.50;99.90;;;;;;5052296;28;38146;-74
2024/01/17 01:09:16;;;;;;;29.30;17.80;;;-0.50;99.90;;;;;;5034712;28;37794;-75
2024/01/17 01:11:43;;;;;;;32.03;18.57;;;-0.50;99.90;;;;;;5029274;28;37602;-74
2024/01/17 01:14:09;;;;;;;34.53;20.63;;;-0.50;99.90;;;;;;5034093;28;38611;-75
2024/01/17 01:16:35;;;;;;;31.07;18.97;;;-0.50;99.90;;;;;;5037997;28;38128;-74
2024/01/17 01:19:01;;;;;;;35.13;19.77;;;-0.50;99.90;;;;;;5039994;28;36536;-74
2024/01/17 01:21:27;;;;;;;36.87;20.40;;;-0.50;99.90;;;;;;5041114;28;37600;-74
2024/01/17 01:23:53;;;;;;;38.17;21.83;;;-0.50;99.90;;;;;;5042519;28;37227;-74
2024/01/17 01:26:20;;;;;;;33.00;20.50;;;-0.50;99.90;;;;;;5038659;28;36989;-75
2024/01/17 01:28:46;;;;;;;26.43;18.80;;;-0.50;99.90;;;;;;5039853;28;37924;-75
2024/01/17 01:31:12;;;;;;;29.70;18.90;;;-0.50;99.90;;;;;;5045297;28;39184;-76
2024/01/17 01:33:38;;;;;;;31.93;19.53;;;-0.60;99.90;;;;;;5026696;28;37940;-75
2024/01/17 01:36:05;;;;;;;33.03;19.33;;;-0.50;99.90;;;;;;5033755;28;37079;-74
2024/01/17 01:38:32;;;;;;;32.07;19.83;;;-0.60;99.90;;;;;;5034119;28;36916;-75
2024/01/17 01:40:58;;;;;;;31.30;20.60;;;-0.50;99.90;;;;;;5029565;28;38133;-74
2024/01/17 01:43:25;;;;;;;35.90;21.07;;;-0.60;99.90;;;;;;5033054;28;37465;-75
2024/01/17 01:46:04;;;;;;;31.47;18.90;;;-0.60;99.90;;;;;;5024393;28;37847;-74
2024/01/17 01:48:31;;;;;;;34.33;19.70;;;-0.60;99.90;;;;;;5026428;28;47423;-74
2024/01/17 01:50:58;;;;;;;33.73;19.30;;;-0.60;99.90;;;;;;5029421;28;37724;-74
2024/01/17 01:53:25;;;;;;;33.47;21.33;;;-0.60;99.90;;;;;;5031362;28;37293;-74
2024/01/17 01:55:53;;;;;;;30.27;19.90;;;-0.60;99.90;;;;;;5027565;28;38048;-74
2024/01/17 01:58:21;;;;;;;32.23;19.43;;;-0.60;99.90;;;;;;5027563;28;36150;-74
2024/01/17 02:03:25;;;;;;;30.60;19.43;;;-0.60;99.90;;;;;;5240830;22;20563;-81
2024/01/17 02:05:52;;;;;;;33.97;19.53;;;-0.60;99.90;;;;;;5095409;28;38864;-80
2024/01/17 02:08:20;;;;;;;32.77;19.73;;;-0.60;99.90;;;;;;5076260;28;37513;-80
2024/01/17 02:10:46;;;;;;;28.57;18.63;;;-0.60;99.90;;;;;;5078562;28;38214;-81
2024/01/17 02:13:13;;;;;;;33.77;19.00;;;-0.60;99.90;;;;;;5095998;28;38573;-80
2024/01/17 02:15:39;;;;;;;30.47;18.93;;;-0.60;99.90;;;;;;5086302;28;38395;-80
2024/01/17 02:18:06;;;;;;;32.40;17.80;;;-0.60;99.90;;;;;;5088529;28;37883;-81
2024/01/17 02:20:32;;;;;;;33.73;18.50;;;-0.60;99.90;;;;;;5098276;28;39919;-81
2024/01/17 02:22:58;;;;;;;29.57;17.23;;;-0.60;99.90;;;;;;5080850;28;38452;-81
2024/01/17 02:25:24;;;;;;;31.77;17.73;;;-0.60;99.90;;;;;;5093049;28;39292;-83
2024/01/17 02:27:51;;;;;;;32.87;18.33;;;-0.60;99.90;;;;;;5079431;28;36775;-82
2024/01/17 02:30:17;;;;;;;32.33;17.70;;;-0.60;99.90;;;;;;5074836;28;39183;-82
2024/01/17 02:32:44;;;;;;;30.33;17.77;;;-0.60;99.90;;;;;;5078548;28;38703;-82
2024/01/17 02:35:10;;;;;;;26.87;17.07;;;-0.60;99.90;;;;;;5073984;28;37993;-82
2024/01/17 02:37:37;;;;;;;26.37;16.40;;;-0.60;99.90;;;;;;5095236;28;37757;-81
2024/01/17 02:40:03;;;;;;;34.83;18.20;;;-0.60;99.90;;;;;;5080159;28;37800;-82
2024/01/17 02:42:30;;;;;;;33.40;17.17;;;-0.50;99.90;;;;;;5094484;28;48723;-81
2024/01/17 02:44:57;;;;;;;29.43;18.03;;;-0.60;99.90;;;;;;5074877;28;38545;-81
2024/01/17 02:47:24;;;;;;;28.60;17.27;;;-0.50;99.90;;;;;;5092613;28;37558;-82
2024/01/17 02:49:50;;;;;;;24.83;16.50;;;-0.50;99.90;;;;;;5088469;28;40529;-79
2024/01/17 02:52:16;;;;;;;23.57;15.80;;;-0.50;99.90;;;;;;5074931;28;38727;-79
2024/01/17 02:54:43;;;;;;;33.27;18.23;;;-0.60;99.90;;;;;;5090282;28;36913;-79
2024/01/17 02:57:09;;;;;;;31.87;17.13;;;-0.50;99.90;;;;;;5069975;28;37244;-80
2024/01/17 02:59:36;;;;;;;29.13;17.33;;;-0.50;99.90;;;;;;5089154;28;38924;-79
2024/01/17 03:02:03;;;;;;;34.13;18.67;;;-0.50;99.90;;;;;;5074760;28;37298;-80
2024/01/17 03:04:29;;;;;;;28.63;16.13;;;-0.50;99.90;;;;;;5066229;28;38856;-79
2024/01/17 03:06:56;;;;;;;38.37;18.70;;;-0.50;99.90;;;;;;5091025;28;38410;-80
2024/01/17 03:09:22;;;;;;;32.17;17.53;;;-0.60;99.90;;;;;;5084610;28;38862;-79
2024/01/17 03:11:48;;;;;;;28.10;18.47;;;-0.60;99.90;;;;;;5066985;28;38838;-79
2024/01/17 03:14:14;;;;;;;32.07;17.73;;;-0.60;99.90;;;;;;5088494;28;38097;-79
2024/01/17 03:16:40;;;;;;;33.10;17.00;;;-0.60;99.90;;;;;;5070110;28;36646;-80
2024/01/17 03:19:07;;;;;;;29.47;17.00;;;-0.60;99.90;;;;;;5088833;28;38221;-80
2024/01/17 03:21:33;;;;;;;32.93;17.93;;;-0.60;99.90;;;;;;5068209;28;38539;-79
2024/01/17 03:24:00;;;;;;;28.20;16.83;;;-0.60;99.90;;;;;;5068138;28;39989;-79
2024/01/17 03:26:26;;;;;;;29.07;17.53;;;-0.60;99.90;;;;;;5058332;28;37968;-79
2024/01/17 03:28:52;;;;;;;26.43;16.17;;;-0.60;99.90;;;;;;5073819;28;38315;-79
2024/01/17 03:31:19;;;;;;;30.17;16.93;;;-0.50;99.90;;;;;;5068010;28;37123;-79
2024/01/17 03:33:45;;;;;;;33.73;15.53;;;-0.50;99.90;;;;;;5074153;28;37627;-80
2024/01/17 03:36:11;;;;;;;29.37;14.57;;;-0.60;99.90;;;;;;5067970;28;37378;-79
2024/01/17 03:38:37;;;;;;;27.53;15.83;;;-0.60;99.90;;;;;;5084862;28;39187;-79
2024/01/17 03:41:06;;;;;;;28.93;15.80;;;-0.60;99.90;;;;;;5084851;28;39165;-79
2024/01/17 03:43:32;;;;;;;31.20;16.30;;;-0.60;99.90;;;;;;5083945;28;36419;-79
2024/01/17 03:45:58;;;;;;;27.00;14.67;;;-0.60;99.90;;;;;;5069623;28;36213;-79
2024/01/17 03:48:24;;;;;;;30.07;15.50;;;-0.60;99.90;;;;;;5070972;28;37267;-79
2024/01/17 03:50:51;;;;;;;30.17;15.37;;;-0.60;99.90;;;;;;5082148;28;38466;-80
2024/01/17 03:53:17;;;;;;;25.07;15.57;;;-0.60;99.90;;;;;;5092773;28;37879;-80
2024/01/17 03:55:44;;;;;;;27.03;15.57;;;-0.60;99.90;;;;;;5082523;28;37017;-79
2024/01/17 03:58:10;;;;;;;32.43;16.40;;;-0.60;99.90;;;;;;5078442;28;39587;-79
2024/01/17 04:00:36;;;;;;;26.93;16.17;;;-0.60;99.90;;;;;;5061712;28;37237;-79
2024/01/17 04:03:03;;;;;;;25.63;15.00;;;-0.60;99.90;;;;;;5092023;28;38442;-80
2024/01/17 04:05:29;;;;;;;32.23;15.47;;;-0.60;99.90;;;;;;5057795;28;38078;-79
2024/01/17 04:07:55;;;;;;;24.20;15.20;;;-0.60;99.90;;;;;;5070656;28;37558;-79
2024/01/17 04:10:21;;;;;;;30.53;14.87;;;-0.70;99.90;;;;;;5087627;28;39410;-79
2024/01/17 04:12:48;;;;;;;26.13;14.93;;;-0.60;99.90;;;;;;5072022;28;37151;-79
2024/01/17 04:15:14;;;;;;;30.67;13.90;;;-0.60;99.90;;;;;;5081620;28;37795;-79
2024/01/17 04:17:40;;;;;;;25.50;13.83;;;-0.60;99.90;;;;;;5070297;28;38693;-79
2024/01/17 04:20:07;;;;;;;27.03;16.13;;;-0.70;99.90;;;;;;5058207;28;37337;-81
2024/01/17 04:22:34;;;;;;;31.90;16.40;;;-0.70;99.90;;;;;;5064796;28;37770;-79
2024/01/17 04:25:01;;;;;;;25.13;14.53;;;-0.70;99.90;;;;;;5058254;28;37398;-79
2024/01/17 04:27:29;;;;;;;27.47;14.67;;;-0.70;99.90;;;;;;5074423;28;39819;-79
2024/01/17 04:29:55;;;;;;;26.47;15.13;;;-0.70;99.90;;;;;;5064942;28;37487;-79
2024/01/17 04:32:21;;;;;;;23.83;14.13;;;-0.70;99.90;;;;;;5052802;28;36689;-78
2024/01/17 04:34:47;;;;;;;24.13;15.53;;;-0.70;99.90;;;;;;5060367;28;37366;-80
2024/01/17 04:37:13;;;;;;;24.00;12.87;;;-0.60;99.90;;;;;;5074888;28;40080;-79
2024/01/17 04:39:39;;;;;;;28.70;13.57;;;-0.60;99.90;;;;;;5055477;28;37185;-78
2024/01/17 04:42:05;;;;;;;22.23;13.07;;;-0.60;99.90;;;;;;5062402;28;38090;-79
2024/01/17 04:44:32;;;;;;;19.87;12.70;;;-0.60;99.90;;;;;;5081189;28;37092;-78
2024/01/17 04:46:59;;;;;;;22.97;11.40;;;-0.60;99.90;;;;;;5075616;28;39425;-79
2024/01/17 04:49:27;;;;;;;23.17;11.47;;;-0.60;99.90;;;;;;5061246;28;37304;-79
2024/01/17 04:51:54;;;;;;;23.27;12.70;;;-0.60;99.90;;;;;;5082991;28;38359;-79
2024/01/17 04:54:22;;;;;;;22.33;12.83;;;-0.60;99.90;;;;;;5069530;28;36590;-79
2024/01/17 04:56:49;;;;;;;26.87;12.27;;;-0.60;99.90;;;;;;5063310;28;37708;-79
2024/01/17 04:59:15;;;;;;;23.90;12.53;;;-0.60;99.90;;;;;;5080109;28;39316;-79
2024/01/17 05:01:41;;;;;;;28.50;13.23;;;-0.60;99.90;;;;;;5085905;28;39269;-79
2024/01/17 05:04:08;;;;;;;23.67;12.53;;;-0.60;99.90;;;;;;5067597;28;37425;-80
2024/01/17 05:06:34;;;;;;;24.23;11.93;;;-0.60;99.90;;;;;;5075199;28;37633;-79
2024/01/17 05:09:03;;;;;;;21.57;12.80;;;-0.60;99.90;;;;;;5087534;28;39600;-78
2024/01/17 05:11:29;;;;;;;18.93;11.33;;;-0.60;99.90;;;;;;5084330;28;48766;-79
2024/01/17 05:13:55;;;;;;;22.70;12.20;;;-0.50;99.90;;;;;;5068641;28;36538;-79
2024/01/17 05:16:21;;;;;;;23.07;12.23;;;-0.50;99.90;;;;;;5063112;28;39095;-79
2024/01/17 05:18:47;;;;;;;25.13;12.73;;;-0.50;99.90;;;;;;5072562;28;38269;-79
2024/01/17 05:21:13;;;;;;;26.17;11.33;;;-0.50;99.90;;;;;;5079059;28;37148;-79
2024/01/17 05:23:40;;;;;;;28.10;12.43;;;-0.50;99.90;;;;;;5085851;28;37448;-80
2024/01/17 05:26:06;;;;;;;31.03;13.97;;;-0.60;99.90;;;;;;5083402;28;39053;-80
2024/01/17 05:28:32;;;;;;;24.57;12.30;;;-0.60;99.90;;;;;;5067468;28;37584;-79
2024/01/17 05:30:58;;;;;;;29.70;13.10;;;-0.60;99.90;;;;;;5064435;28;37455;-79
2024/01/17 05:33:24;;;;;;;26.73;12.77;;;-0.60;99.90;;;;;;5092529;28;37231;-78
2024/01/17 05:35:51;;;;;;;27.93;13.07;;;-0.60;99.90;;;;;;5077755;28;38676;-79
2024/01/17 05:38:17;;;;;;;30.90;13.33;;;-0.70;99.90;;;;;;5067501;28;37304;-78
2024/01/17 05:40:43;;;;;;;28.37;14.07;;;-0.70;99.90;;;;;;5076615;28;38432;-79
2024/01/17 05:43:10;;;;;;;29.80;13.67;;;-0.80;99.90;;;;;;5059294;28;38450;-80
2024/01/17 05:45:36;;;;;;;33.13;13.47;;;-0.80;99.90;;;;;;5065993;28;37744;-78
2024/01/17 05:48:02;;;;;;;34.63;15.27;;;-0.90;99.90;;;;;;5068932;28;39788;-79
2024/01/17 05:50:29;;;;;;;29.03;14.07;;;-0.90;99.90;;;;;;5067240;28;37435;-79
2024/01/17 05:52:55;;;;;;;30.43;13.57;;;-0.90;99.90;;;;;;5062426;28;36306;-79
2024/01/17 05:55:21;;;;;;;34.17;15.40;;;-1.00;99.90;;;;;;5062684;28;39739;-79
2024/01/17 05:57:48;;;;;;;26.47;14.33;;;-1.00;99.90;;;;;;5089422;28;39223;-79
2024/01/17 06:00:15;;;;;;;31.67;13.97;;;-1.00;99.90;;;;;;5086229;28;38775;-79
2024/01/17 06:02:42;;;;;;;25.87;13.20;;;-1.00;99.90;;;;;;5068591;28;36672;-79
2024/01/17 06:05:08;;;;;;;24.13;13.23;;;-1.00;99.90;;;;;;5068794;28;37669;-79
2024/01/17 06:07:35;;;;;;;25.67;13.27;;;-1.00;99.90;;;;;;5066367;28;40737;-79
2024/01/17 06:10:02;;;;;;;25.40;13.53;;;-1.00;99.90;;;;;;5060340;28;38603;-78
2024/01/17 06:12:29;;;;;;;28.30;14.63;;;-1.10;99.90;;;;;;5076405;28;37293;-77
2024/01/17 06:14:55;;;;;;;36.90;14.67;;;-1.10;99.90;;;;;;5086918;28;37885;-76
2024/01/17 06:17:24;;;;;;;24.20;14.77;;;-1.10;99.90;;;;;;5086447;28;38722;-77
2024/01/17 06:19:53;;;;;;;29.13;14.47;;;-1.20;99.90;;;;;;5071678;28;36966;-77
2024/01/17 06:22:19;;;;;;;29.10;14.90;;;-1.20;99.90;;;;;;5052938;28;36215;-77
2024/01/17 06:24:48;;;;;;;25.23;14.67;;;-1.20;99.90;;;;;;5068984;28;39480;-78
2024/01/17 06:27:18;;;;;;;29.30;14.63;;;-1.20;99.90;;;;;;5080170;28;38027;-78
2024/01/17 06:29:45;;;;;;;24.40;14.17;;;-1.20;99.90;;;;;;5087505;28;37924;-78
2024/01/17 06:32:12;;;;;;;25.83;14.63;;;-1.20;99.90;;;;;;5077147;28;36280;-77
2024/01/17 06:34:39;;;;;;;25.83;13.73;;;-1.20;99.90;;;;;;5091770;28;38751;-78
2024/01/17 06:37:05;;;;;;;25.20;14.23;;;-1.20;99.90;;;;;;5083731;28;39854;-79
2024/01/17 06:39:32;;;;;;;25.07;14.77;;;-1.30;99.90;;;;;;5082169;28;38066;-78
2024/01/17 06:41:59;;;;;;;23.57;14.17;;;-1.20;99.90;;;;;;5088253;28;37069;-79
2024/01/17 06:44:28;;;;;;;23.83;14.97;;;-1.20;99.90;;;;;;5085545;28;38657;-78
2024/01/17 06:46:55;;;;;;;23.13;13.70;;;-1.30;99.90;;;;;;5082089;28;37030;-79
2024/01/17 06:49:22;;;;;;;26.43;14.33;;;-1.20;99.90;;;;;;5067096;28;36966;-79
2024/01/17 06:51:48;;;;;;;24.80;14.43;;;-1.20;99.90;;;;;;5085341;28;37579;-78
2024/01/17 06:54:15;;;;;;;29.83;15.47;;;-1.30;99.90;;;;;;5067218;28;38128;-79
2024/01/17 06:56:41;;;;;;;24.57;14.43;;;-1.20;99.90;;;;;;5064115;28;37720;-77
2024/01/17 06:59:07;;;;;;;34.20;15.93;;;-1.20;99.90;;;;;;5059887;28;37432;-79
2024/01/17 07:01:35;;;;;;;30.13;14.33;;;-1.20;99.90;;;;;;5063413;28;38169;-79
2024/01/17 07:04:04;;;;;;;24.03;13.93;;;-1.20;99.90;;;;;;5072803;28;39214;-80
2024/01/17 07:06:31;;;;;;;28.43;15.27;;;-1.20;99.90;;;;;;5095240;28;49038;-80
2024/01/17 07:08:58;;;;;;;26.67;14.73;;;-1.20;99.90;;;;;;5090870;28;38263;-80
2024/01/17 07:11:25;;;;;;;26.80;15.57;;;-1.10;99.90;;;;;;5090464;28;38522;-81
2024/01/17 07:13:51;;;;;;;27.23;14.70;;;-1.20;99.90;;;;;;5078976;28;38593;-79
2024/01/17 07:16:17;;;;;;;25.90;14.67;;;-1.10;99.90;;;;;;5084467;28;38395;-79
2024/01/17 07:18:43;;;;;;;22.87;14.40;;;-1.10;99.90;;;;;;5062798;28;37917;-79
2024/01/17 07:21:10;;;;;;;25.53;13.13;;;-1.10;99.90;;;;;;5087084;28;38468;-80
2024/01/17 07:23:39;;;;;;;25.67;13.90;;;-1.10;99.90;;;;;;5073349;28;39109;-79
2024/01/17 07:26:06;;;;;;;25.43;13.87;;;-1.10;99.90;;;;;;5081939;28;38203;-79
2024/01/17 07:28:32;;;;;;;26.70;13.63;;;-1.10;99.90;;;;;;5084906;28;38113;-80
2024/01/17 07:30:59;;;;;;;29.87;14.77;;;-1.10;99.90;;;;;;5076510;28;36408;-79
2024/01/17 07:33:25;;;;;;;24.03;13.40;;;-1.10;99.90;;;;;;5084688;28;39843;-79
2024/01/17 07:35:51;;;;;;;26.60;16.47;;;-1.10;99.90;;;;;;5079197;28;39608;-81
2024/01/17 07:38:17;;;;;;;32.63;15.03;;;-1.10;99.90;;;;;;5087436;28;38815;-79
2024/01/17 07:40:44;;;;;;;29.13;13.87;;;-1.10;99.90;;;;;;5086744;28;36264;-79
2024/01/17 07:43:10;;;;;;;23.27;13.60;;;-1.10;99.90;;;;;;5073058;28;37634;-80
2024/01/17 07:45:36;;;;;;;25.33;13.13;;;-1.10;99.90;;;;;;5092017;28;39417;-79
2024/01/17 07:48:03;;;;;;;25.47;13.23;;;-1.10;99.90;;;;;;5075142;28;37055;-79
2024/01/17 07:50:29;;;;;;;19.97;12.27;;;-1.10;99.90;;;;;;5066311;28;47222;-79
2024/01/17 07:52:55;;;;;;;33.23;14.63;;;-1.10;99.90;;;;;;5066982;28;37691;-80
2024/01/17 07:55:21;;;;;;;21.50;13.50;;;-1.00;99.90;;;;;;5060581;28;37547;-80
2024/01/17 07:57:47;;;;;;;19.70;12.90;;;-1.00;99.90;;;;;;5074613;28;39596;-79
2024/01/17 08:00:14;;;;;;;22.07;13.33;;;-1.00;99.90;;;;;;5096086;28;37712;-80
2024/01/17 08:02:40;;;;;;;25.47;13.43;;;-1.00;99.90;;;;;;5091117;28;38668;-80
2024/01/17 08:05:06;;;;;;;30.07;13.87;;;-1.00;99.90;;;;;;5067729;28;38225;-80
2024/01/17 08:07:33;;;;;;;33.10;14.43;;;-1.00;99.90;;;;;;5081786;28;48992;-79
2024/01/17 08:09:59;;;;;;;32.13;13.67;;;-1.00;99.90;;;;;;5065979;28;36825;-80
2024/01/17 08:12:26;;;;;;;25.87;13.87;;;-1.00;99.90;;;;;;5080228;28;38972;-78
2024/01/17 08:14:52;;;;;;;29.37;12.80;;;-0.90;99.90;;;;;;5072389;28;37692;-79
2024/01/17 08:17:18;;;;;;;27.33;13.30;;;-1.00;99.90;;;;;;5088365;28;38292;-79
2024/01/17 08:19:45;;;;;;;28.17;14.00;;;-1.00;99.90;;;;;;5087585;28;37289;-79
2024/01/17 08:22:11;;;;;;;27.33;13.27;;;-1.00;99.90;;;;;;5070392;28;38054;-79
2024/01/17 08:24:40;;;;;;;24.33;12.37;;;-1.00;99.90;;;;;;5068803;28;37811;-79
2024/01/17 08:27:06;;;;;;;23.60;12.67;;;-0.90;99.90;;;;;;5087946;28;40016;-82
2024/01/17 08:29:34;;;;;;;26.90;13.40;;;-0.90;99.90;;;;;;5078798;28;36712;-80
2024/01/17 08:32:00;;;;;;;27.67;12.47;;;-0.90;99.90;;;;;;5084376;28;37712;-81
2024/01/17 08:34:26;;;;;;;31.87;14.27;;;-0.80;99.90;;;;;;5095606;28;39219;-81
2024/01/17 08:36:54;;;;;;;24.50;12.67;;;-0.80;99.90;;;;;;5090662;28;37793;-81
2024/01/17 08:39:22;;;;;;;17.73;11.23;;;-0.80;99.90;;;;;;5096151;28;38823;-81
2024/01/17 08:41:48;;;;;;;24.03;12.60;;;-0.80;99.90;;;;;;5095968;28;40842;-82
2024/01/17 08:44:15;;;;;;;24.13;12.10;;;-0.80;99.90;;;;;;5082586;28;39450;-81
2024/01/17 08:46:45;;;;;;;31.73;12.20;;;-0.80;99.90;;;;;;5095917;28;36803;-81
2024/01/17 08:49:12;;;;;;;31.50;12.63;;;-0.70;99.90;;;;;;5076904;28;37043;-81
2024/01/17 08:51:38;;;;;;;31.33;11.93;;;-0.80;99.90;;;;;;5079567;28;37732;-81
2024/01/17 08:54:05;;;;;;;25.90;11.47;;;-0.80;99.90;;;;;;5081420;28;38706;-81
2024/01/17 08:56:31;;;;;;;28.27;10.03;;;-0.80;99.90;;;;;;5104677;28;39159;-80
2024/01/17 08:58:58;;;;;;;19.00;10.43;;;-0.80;99.90;;;;;;5070426;28;38482;-79
2024/01/17 09:01:24;;;;;;;19.37;11.60;;;-0.70;99.90;;;;;;5068496;28;39431;-80
2024/01/17 09:03:52;;;;;;;18.20;10.23;;;-0.60;99.90;;;;;;5099300;28;38608;-79
2024/01/17 09:06:18;;;;;;;17.87;10.57;;;-0.60;99.90;;;;;;5097685;28;38160;-80
2024/01/17 09:08:44;;;;;;;16.03;10.03;;;-0.60;99.90;;;;;;5072179;28;37414;-79
2024/01/17 09:11:11;;;;;;;22.50;10.50;;;-0.50;99.90;;;;;;5090814;28;39551;-80
2024/01/17 09:13:38;;;;;;;18.40;9.60;;;-0.50;99.90;;;;;;5092552;28;39832;-81
2024/01/17 09:16:05;;;;;;;16.70;9.87;;;-0.50;99.90;;;;;;5080033;28;38375;-81
2024/01/17 09:18:31;;;;;;;18.83;10.50;;;-0.50;99.90;;;;;;5092731;28;37578;-80
2024/01/17 09:20:58;;;;;;;18.43;10.13;;;-0.40;99.90;;;;;;5080318;28;38116;-79
2024/01/17 09:23:24;;;;;;;19.20;9.93;;;-0.40;99.90;;;;;;5090130;28;39008;-81
2024/01/17 09:25:50;;;;;;;17.17;9.87;;;-0.40;99.90;;;;;;5068461;28;37499;-82
2024/01/17 09:28:16;;;;;;;17.90;9.20;;;-0.50;99.90;;;;;;5069383;28;35932;-80
2024/01/17 09:30:45;;;;;;;15.87;10.30;;;-0.30;99.90;;;;;;5076897;28;38397;-82
2024/01/17 09:33:15;;;;;;;17.30;9.27;;;-0.30;99.90;;;;;;5067066;28;37659;-79
2024/01/17 09:35:44;;;;;;;18.57;11.30;;;-0.30;99.90;;;;;;5069778;28;38272;-79
2024/01/17 09:38:14;;;;;;;14.90;9.03;;;-0.30;99.90;;;;;;5092494;28;37205;-79
2024/01/17 09:40:40;;;;;;;17.20;9.07;;;-0.30;99.90;;;;;;5070491;28;37974;-80
2024/01/17 09:43:10;;;;;;;15.90;9.20;;;-0.30;99.90;;;;;;5076234;28;37460;-81
2024/01/17 09:45:39;;;;;;;20.30;9.00;;;-0.30;99.90;;;;;;5082968;28;37626;-79
2024/01/17 09:48:07;;;;;;;13.07;8.47;;;-0.20;99.90;;;;;;5075321;28;37920;-80
2024/01/17 09:50:33;;;;;;;15.77;10.17;;;-0.10;99.90;;;;;;5069258;28;39489;-81
2024/01/17 09:53:03;;;;;;;13.80;8.60;;;-0.10;99.90;;;;;;5071766;28;38213;-81
2024/01/17 09:55:31;;;;;;;13.60;8.17;;;-0.20;99.90;;;;;;5065808;28;47749;-80
2024/01/17 09:57:58;;;;;;;13.83;8.63;;;-0.10;99.90;;;;;;5070347;28;37209;-80
2024/01/17 10:00:26;;;;;;;14.80;8.87;;;0.00;99.90;;;;;;5066989;28;39680;-80
2024/01/17 10:02:54;;;;;;;17.00;8.83;;;-0.10;99.90;;;;;;5092533;28;47507;-80
2024/01/17 10:05:23;;;;;;;15.87;9.27;;;0.00;99.90;;;;;;5067310;28;38730;-80
2024/01/17 10:07:52;;;;;;;16.03;10.10;;;0.00;99.90;;;;;;5096825;28;38112;-82
2024/01/17 10:10:21;;;;;;;10.97;7.30;;;0.20;99.90;;;;;;5070886;28;40984;-80
2024/01/17 10:12:47;;;;;;;14.53;8.83;;;0.10;94.50;;;;;;5077989;28;37711;-81
2024/01/17 10:15:16;;;;;;;14.00;8.07;;;0.10;95.90;;;;;;5077871;28;39559;-80
2024/01/17 10:17:43;;;;;;;16.30;9.17;;;0.20;95.60;;;;;;5059888;28;37269;-78
2024/01/17 10:20:09;;;;;;;14.03;8.63;;;0.20;91.10;;;;;;5084122;28;38744;-79
2024/01/17 10:22:35;;;;;;;15.13;8.13;;;0.30;90.90;;;;;;5068442;28;37759;-79
2024/01/17 10:25:02;;;;;;;14.83;9.03;;;0.20;89.60;;;;;;5069643;28;38295;-79
2024/01/17 10:27:29;;;;;;;13.33;8.33;;;0.20;90.10;;;;;;5082380;28;37169;-79
2024/01/17 10:29:55;;;;;;;17.63;8.83;;;0.30;91.90;;;;;;5062519;28;38402;-80
2024/01/17 10:32:21;;;;;;;13.87;8.27;;;0.30;92.80;;;;;;5090417;28;37973;-79
2024/01/17 10:34:48;;;;;;;13.87;8.10;;;0.30;84.80;;;;;;5068198;28;37020;-79
2024/01/17 10:37:18;;;;;;;17.40;8.43;;;0.30;81.70;;;;;;5066947;28;37541;-79
2024/01/17 10:39:44;;;;;;;13.70;8.87;;;0.40;89.20;;;;;;5095956;28;39880;-80
2024/01/17 10:42:22;;;;;;;12.40;7.80;;;0.40;85.60;;;;;;5080957;28;39581;-79
2024/01/17 10:44:48;;;;;;;15.80;8.30;;;0.40;82.80;;;;;;5062732;28;38047;-79
2024/01/17 10:47:15;;;;;;;15.13;7.97;;;0.50;77.50;;;;;;5071348;28;36291;-79
2024/01/17 10:49:43;;;;;;;14.03;8.33;;;0.50;76.90;;;;;;5088386;28;40399;-77
2024/01/17 10:52:15;;;;;;;14.73;7.70;;;0.50;83.10;;;;;;5093263;28;38040;-79
2024/01/17 10:54:50;;;;;;;15.48;9.10;;;0.60;83.20;;;;;;5091503;28;38408;-76
2024/01/17 10:57:19;;;;;;;13.50;8.33;;;0.70;76.80;;;;;;5076002;28;36292;-78
2024/01/17 10:59:50;;;;;;;13.40;8.23;;;0.60;60.30;;;;;;5075702;28;38121;-78
2024/01/17 11:02:22;;;;;;;13.37;7.97;;;0.60;67.70;;;;;;5074271;28;39706;-78
2024/01/17 11:05:03;;;;;;;13.32;8.63;;;0.50;58.60;;;;;;5075298;28;37026;-78
2024/01/17 11:07:32;;;;;;;17.80;8.87;;;0.60;67.10;;;;;;5084515;28;35860;-79
2024/01/17 11:10:05;;;;;;;17.27;9.00;;;0.70;53.20;;;;;;5076707;28;39454;-79
2024/01/17 11:12:33;;;;;;;17.00;9.27;;;0.70;53.60;;;;;;5067973;28;47091;-79
2024/01/17 11:15:00;;;;;;;16.27;8.83;;;0.60;58.50;;;;;;5074370;28;37360;-79
2024/01/17 11:17:28;;;;;;;18.20;9.90;;;0.60;66.60;;;;;;5073844;28;36856;-80
2024/01/17 11:19:57;;;;;;;20.03;10.00;;;0.70;77.60;;;;;;5079157;28;37921;-81
2024/01/17 11:22:23;;;;;;;14.63;8.70;;;0.80;79.10;;;;;;5080794;28;37709;-80
2024/01/17 11:25:13;;;;;;;19.27;9.10;;;0.90;82.10;;;;;;5086838;28;38310;-79
2024/01/17 11:27:59;;;;;;;17.30;9.33;;;0.90;77.80;;;;;;5075443;28;47733;-78
2024/01/17 11:31:12;;;;;;;17.40;10.10;;;0.90;75.20;;;;;;5054560;28;38731;-78
2024/01/17 11:33:40;;;;;;;19.43;9.77;;;1.00;85.70;;;;;;5063558;28;47280;-78
2024/01/17 11:36:06;;;;;;;20.03;10.30;;;0.90;82.10;;;;;;5061556;28;37474;-78
2024/01/17 11:38:33;;;;;;;16.30;9.60;;;0.70;77.50;;;;;;5085191;28;37964;-78
2024/01/17 11:41:06;;;;;;;17.47;9.37;;;0.70;75.80;;;;;;5081204;28;39359;-78
2024/01/17 11:43:36;;;;;;;15.53;9.93;;;0.70;78.40;;;;;;5078558;28;47246;-78
2024/01/17 11:46:07;;;;;;;18.60;10.90;;;0.80;85.40;;;;;;5067788;28;38358;-79
2024/01/17 11:48:38;;;;;;;15.87;9.37;;;0.80;68.60;;;;;;5063335;28;37896;-78
2024/01/17 11:51:18;;;;;;;14.17;8.20;;;0.80;71.30;;;;;;5074727;28;38688;-79
2024/01/17 11:53:50;;;;;;;16.67;9.60;;;0.80;73.50;;;;;;5058508;28;38900;-78
2024/01/17 11:56:20;;;;;;;26.92;10.13;;;0.80;62.10;;;;;;5060973;28;37109;-78
2024/01/17 11:58:49;;;;;;;15.53;8.57;;;0.80;74.50;;;;;;5066028;28;36185;-78
2024/01/17 12:01:36;;;;;;;17.23;9.30;;;0.80;74.20;;;;;;5075915;28;37548;-78
2024/01/17 12:04:10;;;;;;;15.90;8.60;;;0.90;66.70;;;;;;5089933;28;39145;-79
2024/01/17 12:06:48;;;;;;;16.60;9.67;;;0.90;62.30;;;;;;5069229;28;38314;-78
2024/01/17 12:09:21;;;;;;;14.13;8.80;;;0.90;54.30;;;;;;5061227;28;36565;-78
2024/01/17 12:11:47;;;;;;;;;;;0.90;44.90;;;;;;5066069;28;37654;-79
2024/01/17 12:14:15;;;;;;;15.10;9.43;;;1.00;50.90;;;;;;5081876;28;38421;-78
2024/01/17 12:16:42;;;;;;;16.93;10.13;;;1.00;45.00;;;;;;5099144;28;39430;-78
2024/01/17 12:19:12;;;;;;;14.70;8.77;;;0.90;38.30;;;;;;5069008;28;36171;-78
2024/01/17 12:21:39;;;;;;;15.47;9.17;;;1.00;53.00;;;;;;5077148;28;39196;-78
2024/01/17 12:24:11;;;;;;;17.50;9.47;;;1.00;51.90;;;;;;5073424;28;37712;-78
2024/01/17 12:26:38;;;;;;;15.18;9.05;;;1.20;47.40;;;;;;5063239;28;37176;-79
2024/01/17 12:29:11;;;;;;;14.80;8.53;;;1.10;25.40;;;;;;5085526;28;37351;-78
2024/01/17 12:31:37;;;;;;;16.43;8.53;;;1.00;25.60;;;;;;5066969;28;38162;-79
2024/01/17 12:34:07;;;;;;;15.87;7.93;;;1.00;24.60;;;;;;5093447;28;39063;-79